sensor_id;sensor_type;location;lat;lon;timestamp;pressure;altitude;pressure_sealevel;temperature
68440;BMP180;55421;51.600;5.718;2024-03-23T00:55:03;156238.41;;;8.10
68440;BMP180;55421;51.600;5.718;2024-03-23T00:57:30;156164.59;;;8.00
68440;BMP180;55421;51.600;5.718;2024-03-23T00:59:58;156235.20;;;8.00
68440;BMP180;55421;51.600;5.718;2024-03-23T01:02:24;156337.41;;;7.90
68440;BMP180;55421;51.600;5.718;2024-03-23T01:04:51;156324.80;;;7.90
68440;BMP180;55421;51.600;5.718;2024-03-23T01:07:17;156382.20;;;7.92
68440;BMP180;55421;51.600;5.718;2024-03-23T01:09:43;156239.59;;;7.90
68440;BMP180;55421;51.600;5.718;2024-03-23T01:12:10;156393.00;;;8.00
68440;BMP180;55421;51.600;5.718;2024-03-23T01:14:37;156450.41;;;7.94
68440;BMP180;55421;51.600;5.718;2024-03-23T01:17:04;156481.80;;;8.00
68440;BMP180;55421;51.600;5.718;2024-03-23T01:19:30;156596.41;;;8.00
68440;BMP180;55421;51.600;5.718;2024-03-23T01:21:56;156507.41;;;8.00
68440;BMP180;55421;51.600;5.718;2024-03-23T01:24:23;156311.20;;;7.98
68440;BMP180;55421;51.600;5.718;2024-03-23T01:26:49;156192.80;;;7.98
68440;BMP180;55421;51.600;5.718;2024-03-23T01:29:15;156032.20;;;7.90
68440;BMP180;55421;51.600;5.718;2024-03-23T01:31:41;155800.41;;;7.90
68440;BMP180;55421;51.600;5.718;2024-03-23T01:34:08;155577.00;;;7.90
68440;BMP180;55421;51.600;5.718;2024-03-23T01:36:34;154824.59;;;7.80
68440;BMP180;55421;51.600;5.718;2024-03-23T01:39:00;154683.80;;;7.68
68440;BMP180;55421;51.600;5.718;2024-03-23T01:41:27;154850.00;;;7.60
68440;BMP180;55421;51.600;5.718;2024-03-23T01:43:55;154867.59;;;7.52
68440;BMP180;55421;51.600;5.718;2024-03-23T01:46:22;154893.20;;;7.50
68440;BMP180;55421;51.600;5.718;2024-03-23T01:48:49;154891.80;;;7.50
68440;BMP180;55421;51.600;5.718;2024-03-23T01:51:16;155008.80;;;7.50
68440;BMP180;55421;51.600;5.718;2024-03-23T01:53:42;155100.41;;;7.50
68440;BMP180;55421;51.600;5.718;2024-03-23T01:56:09;155140.80;;;7.50
68440;BMP180;55421;51.600;5.718;2024-03-23T01:58:35;155079.41;;;7.50
68440;BMP180;55421;51.600;5.718;2024-03-23T02:01:01;154869.41;;;7.42
68440;BMP180;55421;51.600;5.718;2024-03-23T02:03:28;154906.00;;;7.40
68440;BMP180;55421;51.600;5.718;2024-03-23T02:05:55;154944.80;;;7.40
68440;BMP180;55421;51.600;5.718;2024-03-23T02:08:23;154804.20;;;7.40
68440;BMP180;55421;51.600;5.718;2024-03-23T02:10:51;154680.80;;;7.40
68440;BMP180;55421;51.600;5.718;2024-03-23T02:13:18;154618.00;;;7.38
68440;BMP180;55421;51.600;5.718;2024-03-23T02:15:48;154729.59;;;7.38
68440;BMP180;55421;51.600;5.718;2024-03-23T02:18:14;154674.41;;;7.36
68440;BMP180;55421;51.600;5.718;2024-03-23T02:20:40;154351.80;;;7.30
68440;BMP180;55421;51.600;5.718;2024-03-23T02:23:17;154663.59;;;7.30
68440;BMP180;55421;51.600;5.718;2024-03-23T02:25:44;154515.59;;;7.30
68440;BMP180;55421;51.600;5.718;2024-03-23T02:28:11;154546.59;;;7.30
68440;BMP180;55421;51.600;5.718;2024-03-23T02:30:38;154573.00;;;7.30
68440;BMP180;55421;51.600;5.718;2024-03-23T02:33:05;154588.80;;;7.30
68440;BMP180;55421;51.600;5.718;2024-03-23T02:35:31;154768.41;;;7.32
68440;BMP180;55421;51.600;5.718;2024-03-23T02:37:57;154566.00;;;7.30
68440;BMP180;55421;51.600;5.718;2024-03-23T02:40:24;154338.20;;;7.30
68440;BMP180;55421;51.600;5.718;2024-03-23T02:42:51;154269.20;;;7.24
68440;BMP180;55421;51.600;5.718;2024-03-23T02:45:18;154375.20;;;7.20
68440;BMP180;55421;51.600;5.718;2024-03-23T02:47:44;154434.41;;;7.20
68440;BMP180;55421;51.600;5.718;2024-03-23T02:50:11;154589.80;;;7.20
68440;BMP180;55421;51.600;5.718;2024-03-23T02:52:37;154627.00;;;7.20
68440;BMP180;55421;51.600;5.718;2024-03-23T02:55:04;154517.80;;;7.20
68440;BMP180;55421;51.600;5.718;2024-03-23T02:57:31;154531.00;;;7.20
68440;BMP180;55421;51.600;5.718;2024-03-23T02:59:57;154692.41;;;7.20
68440;BMP180;55421;51.600;5.718;2024-03-23T03:02:23;154823.00;;;7.20
68440;BMP180;55421;51.600;5.718;2024-03-23T03:04:50;154922.41;;;7.20
68440;BMP180;55421;51.600;5.718;2024-03-23T03:07:16;154970.80;;;7.20
68440;BMP180;55421;51.600;5.718;2024-03-23T03:09:43;154890.41;;;7.20
68440;BMP180;55421;51.600;5.718;2024-03-23T03:12:09;155020.41;;;7.20
68440;BMP180;55421;51.600;5.718;2024-03-23T03:14:35;155056.59;;;7.20
68440;BMP180;55421;51.600;5.718;2024-03-23T03:17:02;155099.20;;;7.16
68440;BMP180;55421;51.600;5.718;2024-03-23T03:19:28;155195.00;;;7.18
68440;BMP180;55421;51.600;5.718;2024-03-23T03:21:54;155177.00;;;7.10
68440;BMP180;55421;51.600;5.718;2024-03-23T03:24:21;155180.41;;;7.10
68440;BMP180;55421;51.600;5.718;2024-03-23T03:26:48;155186.20;;;7.10
68440;BMP180;55421;51.600;5.718;2024-03-23T03:29:16;155080.80;;;7.10
68440;BMP180;55421;51.600;5.718;2024-03-23T03:31:43;155200.41;;;7.10
68440;BMP180;55421;51.600;5.718;2024-03-23T03:34:09;155103.41;;;7.10
68440;BMP180;55421;51.600;5.718;2024-03-23T03:36:36;155329.80;;;7.10
68440;BMP180;55421;51.600;5.718;2024-03-23T03:39:02;155339.80;;;7.10
68440;BMP180;55421;51.600;5.718;2024-03-23T03:41:31;155351.41;;;7.10
68440;BMP180;55421;51.600;5.718;2024-03-23T03:43:58;155115.00;;;7.00
68440;BMP180;55421;51.600;5.718;2024-03-23T03:46:28;155365.41;;;7.00
68440;BMP180;55421;51.600;5.718;2024-03-23T03:48:55;155536.20;;;7.00
68440;BMP180;55421;51.600;5.718;2024-03-23T03:51:21;155373.41;;;7.00
68440;BMP180;55421;51.600;5.718;2024-03-23T03:53:47;155340.41;;;7.00
68440;BMP180;55421;51.600;5.718;2024-03-23T03:56:14;155236.00;;;7.00
68440;BMP180;55421;51.600;5.718;2024-03-23T03:58:40;155201.20;;;7.00
68440;BMP180;55421;51.600;5.718;2024-03-23T04:01:06;155158.80;;;7.00
68440;BMP180;55421;51.600;5.718;2024-03-23T04:03:34;154894.80;;;6.90
68440;BMP180;55421;51.600;5.718;2024-03-23T04:06:00;154759.20;;;6.90
68440;BMP180;55421;51.600;5.718;2024-03-23T04:08:27;154669.80;;;6.84
68440;BMP180;55421;51.600;5.718;2024-03-23T04:10:53;154590.00;;;6.80
68440;BMP180;55421;51.600;5.718;2024-03-23T04:13:19;154425.59;;;6.80
68440;BMP180;55421;51.600;5.718;2024-03-23T04:15:46;154352.59;;;6.72
68440;BMP180;55421;51.600;5.718;2024-03-23T04:18:12;154125.20;;;6.70
68440;BMP180;55421;51.600;5.718;2024-03-23T04:20:38;154316.41;;;6.70
68440;BMP180;55421;51.600;5.718;2024-03-23T04:23:05;154082.59;;;6.70
68440;BMP180;55421;51.600;5.718;2024-03-23T04:25:31;154031.41;;;6.62
68440;BMP180;55421;51.600;5.718;2024-03-23T04:27:58;153762.59;;;6.60
68440;BMP180;55421;51.600;5.718;2024-03-23T04:30:24;153510.00;;;6.60
68440;BMP180;55421;51.600;5.718;2024-03-23T04:32:52;153259.41;;;6.50
68440;BMP180;55421;51.600;5.718;2024-03-23T04:35:18;153019.59;;;6.40
68440;BMP180;55421;51.600;5.718;2024-03-23T04:37:46;152615.20;;;6.40
68440;BMP180;55421;51.600;5.718;2024-03-23T04:40:12;152239.00;;;6.30
68440;BMP180;55421;51.600;5.718;2024-03-23T04:42:39;152337.80;;;6.30
68440;BMP180;55421;51.600;5.718;2024-03-23T04:45:06;152296.80;;;6.30
68440;BMP180;55421;51.600;5.718;2024-03-23T04:47:32;152075.59;;;6.20
68440;BMP180;55421;51.600;5.718;2024-03-23T04:50:00;152034.20;;;6.20
68440;BMP180;55421;51.600;5.718;2024-03-23T04:52:27;151977.80;;;6.20
68440;BMP180;55421;51.600;5.718;2024-03-23T04:54:53;151968.20;;;6.10
68440;BMP180;55421;51.600;5.718;2024-03-23T04:57:20;151615.20;;;6.10
68440;BMP180;55421;51.600;5.718;2024-03-23T04:59:47;151700.80;;;6.04
68440;BMP180;55421;51.600;5.718;2024-03-23T05:02:14;151535.80;;;6.00
68440;BMP180;55421;51.600;5.718;2024-03-23T05:04:41;151615.80;;;6.00
68440;BMP180;55421;51.600;5.718;2024-03-23T05:07:07;151685.00;;;6.00
68440;BMP180;55421;51.600;5.718;2024-03-23T05:09:34;151428.00;;;5.92
68440;BMP180;55421;51.600;5.718;2024-03-23T05:12:00;151243.41;;;5.90
68440;BMP180;55421;51.600;5.718;2024-03-23T05:14:27;151242.20;;;5.90
68440;BMP180;55421;51.600;5.718;2024-03-23T05:16:53;151125.20;;;5.80
68440;BMP180;55421;51.600;5.718;2024-03-23T05:19:20;151229.59;;;5.80
68440;BMP180;55421;51.600;5.718;2024-03-23T05:21:46;151127.80;;;5.80
68440;BMP180;55421;51.600;5.718;2024-03-23T05:24:12;151076.80;;;5.70
68440;BMP180;55421;51.600;5.718;2024-03-23T05:26:39;151199.80;;;5.70
68440;BMP180;55421;51.600;5.718;2024-03-23T05:29:05;151362.20;;;5.70
68440;BMP180;55421;51.600;5.718;2024-03-23T05:31:36;151274.20;;;5.70
68440;BMP180;55421;51.600;5.718;2024-03-23T05:34:03;151073.20;;;5.70
68440;BMP180;55421;51.600;5.718;2024-03-23T05:36:30;151150.41;;;5.70
68440;BMP180;55421;51.600;5.718;2024-03-23T05:38:56;150997.80;;;5.70
68440;BMP180;55421;51.600;5.718;2024-03-23T05:41:23;151058.41;;;5.70
68440;BMP180;55421;51.600;5.718;2024-03-23T05:43:50;150930.41;;;5.62
68440;BMP180;55421;51.600;5.718;2024-03-23T05:46:16;151031.80;;;5.60
68440;BMP180;55421;51.600;5.718;2024-03-23T05:48:44;150933.00;;;5.60
68440;BMP180;55421;51.600;5.718;2024-03-23T05:51:10;150865.80;;;5.60
68440;BMP180;55421;51.600;5.718;2024-03-23T05:53:38;150914.00;;;5.60
68440;BMP180;55421;51.600;5.718;2024-03-23T05:56:05;151226.80;;;5.60
68440;BMP180;55421;51.600;5.718;2024-03-23T05:58:33;151282.20;;;5.60
68440;BMP180;55421;51.600;5.718;2024-03-23T06:01:01;151506.00;;;5.70
68440;BMP180;55421;51.600;5.718;2024-03-23T06:03:29;151598.41;;;5.70
68440;BMP180;55421;51.600;5.718;2024-03-23T06:05:56;151737.00;;;5.70
68440;BMP180;55421;51.600;5.718;2024-03-23T06:08:22;151855.41;;;5.70
68440;BMP180;55421;51.600;5.718;2024-03-23T06:10:50;152024.41;;;5.72
68440;BMP180;55421;51.600;5.718;2024-03-23T06:13:17;152109.41;;;5.80
68440;BMP180;55421;51.600;5.718;2024-03-23T06:15:44;152303.59;;;5.80
68440;BMP180;55421;51.600;5.718;2024-03-23T06:18:12;152319.80;;;5.80
68440;BMP180;55421;51.600;5.718;2024-03-23T06:20:38;152434.20;;;5.82
68440;BMP180;55421;51.600;5.718;2024-03-23T06:23:05;152495.59;;;5.88
68440;BMP180;55421;51.600;5.718;2024-03-23T06:25:32;152524.59;;;5.90
68440;BMP180;55421;51.600;5.718;2024-03-23T06:27:58;152614.80;;;5.90
68440;BMP180;55421;51.600;5.718;2024-03-23T06:30:25;152745.20;;;6.00
68440;BMP180;55421;51.600;5.718;2024-03-23T06:32:52;152955.20;;;6.00
68440;BMP180;55421;51.600;5.718;2024-03-23T06:35:19;153145.00;;;6.08
68440;BMP180;55421;51.600;5.718;2024-03-23T06:37:46;153007.80;;;6.10
68440;BMP180;55421;51.600;5.718;2024-03-23T06:40:12;153113.00;;;6.16
68440;BMP180;55421;51.600;5.718;2024-03-23T06:42:39;153040.41;;;6.20
68440;BMP180;55421;51.600;5.718;2024-03-23T06:45:06;153161.59;;;6.20
68440;BMP180;55421;51.600;5.718;2024-03-23T06:47:33;153197.00;;;6.30
68440;BMP180;55421;51.600;5.718;2024-03-23T06:50:00;153309.00;;;6.34
68440;BMP180;55421;51.600;5.718;2024-03-23T06:52:30;153645.00;;;6.50
68440;BMP180;55421;51.600;5.718;2024-03-23T06:54:57;153907.41;;;6.60
68440;BMP180;55421;51.600;5.718;2024-03-23T06:57:24;153900.20;;;6.70
68440;BMP180;55421;51.600;5.718;2024-03-23T06:59:50;153414.59;;;6.70
68440;BMP180;55421;51.600;5.718;2024-03-23T07:02:17;153139.00;;;6.70
68440;BMP180;55421;51.600;5.718;2024-03-23T07:04:43;153032.41;;;6.70
68440;BMP180;55421;51.600;5.718;2024-03-23T07:07:09;152807.00;;;6.70
68440;BMP180;55421;51.600;5.718;2024-03-23T07:09:36;152309.41;;;6.60
68440;BMP180;55421;51.600;5.718;2024-03-23T07:12:05;152278.20;;;6.60
68440;BMP180;55421;51.600;5.718;2024-03-23T07:14:32;152287.80;;;6.60
68440;BMP180;55421;51.600;5.718;2024-03-23T07:16:58;152583.59;;;6.70
68440;BMP180;55421;51.600;5.718;2024-03-23T07:19:24;152552.41;;;6.70
68440;BMP180;55421;51.600;5.718;2024-03-23T07:21:51;152306.00;;;6.70
68440;BMP180;55421;51.600;5.718;2024-03-23T07:24:19;151863.59;;;6.80
68440;BMP180;55421;51.600;5.718;2024-03-23T07:26:46;151842.20;;;6.80
68440;BMP180;55421;51.600;5.718;2024-03-23T07:29:12;151688.80;;;6.86
68440;BMP180;55421;51.600;5.718;2024-03-23T07:31:38;151671.59;;;6.90
68440;BMP180;55421;51.600;5.718;2024-03-23T07:34:05;151545.80;;;7.00
68440;BMP180;55421;51.600;5.718;2024-03-23T07:36:32;151164.80;;;7.02
68440;BMP180;55421;51.600;5.718;2024-03-23T07:38:59;150663.20;;;7.02
68440;BMP180;55421;51.600;5.718;2024-03-23T07:41:26;150605.20;;;7.00
68440;BMP180;55421;51.600;5.718;2024-03-23T07:43:53;150262.00;;;6.86
68440;BMP180;55421;51.600;5.718;2024-03-23T07:46:20;149863.59;;;6.70
68440;BMP180;55421;51.600;5.718;2024-03-23T07:48:46;149715.80;;;6.66
68440;BMP180;55421;51.600;5.718;2024-03-23T07:51:20;149571.41;;;6.60
68440;BMP180;55421;51.600;5.718;2024-03-23T07:53:47;150466.20;;;6.62
68440;BMP180;55421;51.600;5.718;2024-03-23T07:56:15;151401.00;;;6.70
68440;BMP180;55421;51.600;5.718;2024-03-23T07:58:42;151709.00;;;6.80
68440;BMP180;55421;51.600;5.718;2024-03-23T08:01:12;151898.59;;;6.90
68440;BMP180;55421;51.600;5.718;2024-03-23T08:03:41;152050.59;;;7.00
68440;BMP180;55421;51.600;5.718;2024-03-23T08:06:16;152121.20;;;7.10
68440;BMP180;55421;51.600;5.718;2024-03-23T08:08:45;152294.59;;;7.20
68440;BMP180;55421;51.600;5.718;2024-03-23T08:11:12;152559.20;;;7.28
68440;BMP180;55421;51.600;5.718;2024-03-23T08:13:41;152463.00;;;7.24
68440;BMP180;55421;51.600;5.718;2024-03-23T08:16:08;152374.20;;;7.30
68440;BMP180;55421;51.600;5.718;2024-03-23T08:18:39;152795.59;;;7.30
68440;BMP180;55421;51.600;5.718;2024-03-23T08:21:06;152559.59;;;7.40
68440;BMP180;55421;51.600;5.718;2024-03-23T08:23:34;152210.20;;;7.40
68440;BMP180;55421;51.600;5.718;2024-03-23T08:26:10;152677.00;;;7.50
68440;BMP180;55421;51.600;5.718;2024-03-23T08:28:37;152726.41;;;7.60
68440;BMP180;55421;51.600;5.718;2024-03-23T08:31:09;152380.00;;;7.60
68440;BMP180;55421;51.600;5.718;2024-03-23T08:33:36;151903.59;;;7.74
68440;BMP180;55421;51.600;5.718;2024-03-23T08:36:05;151150.20;;;7.80
68440;BMP180;55421;51.600;5.718;2024-03-23T08:38:32;151789.59;;;8.00
68440;BMP180;55421;51.600;5.718;2024-03-23T08:41:06;151797.20;;;8.10
68440;BMP180;55421;51.600;5.718;2024-03-23T08:43:37;151666.59;;;8.10
68440;BMP180;55421;51.600;5.718;2024-03-23T08:46:12;150846.20;;;8.10
68440;BMP180;55421;51.600;5.718;2024-03-23T08:48:42;151138.59;;;8.10
68440;BMP180;55421;51.600;5.718;2024-03-23T08:51:13;150660.20;;;8.10
68440;BMP180;55421;51.600;5.718;2024-03-23T08:53:41;150773.41;;;8.10
68440;BMP180;55421;51.600;5.718;2024-03-23T08:56:09;150780.00;;;8.20
68440;BMP180;55421;51.600;5.718;2024-03-23T08:58:37;150053.41;;;8.20
68440;BMP180;55421;51.600;5.718;2024-03-23T09:01:08;149174.80;;;8.20
68440;BMP180;55421;51.600;5.718;2024-03-23T09:03:37;146977.80;;;8.10
68440;BMP180;55421;51.600;5.718;2024-03-23T09:06:12;143853.59;;;8.06
68440;BMP180;55421;51.600;5.718;2024-03-23T09:08:39;144833.00;;;8.10
68440;BMP180;55421;51.600;5.718;2024-03-23T09:11:10;142851.80;;;8.10
68440;BMP180;55421;51.600;5.718;2024-03-23T09:13:38;144245.20;;;8.20
68440;BMP180;55421;51.600;5.718;2024-03-23T09:16:14;145575.00;;;8.40
68440;BMP180;55421;51.600;5.718;2024-03-23T09:18:41;146153.80;;;8.50
68440;BMP180;55421;51.600;5.718;2024-03-23T09:21:13;146522.41;;;8.60
68440;BMP180;55421;51.600;5.718;2024-03-23T09:23:44;147434.20;;;8.80
68440;BMP180;55421;51.600;5.718;2024-03-23T09:26:11;145650.41;;;8.78
68440;BMP180;55421;51.600;5.718;2024-03-23T09:28:48;142732.80;;;8.56
68440;BMP180;55421;51.600;5.718;2024-03-23T09:31:32;140378.41;;;8.24
68440;BMP180;55421;51.600;5.718;2024-03-23T09:33:59;141011.20;;;7.90
68440;BMP180;55421;51.600;5.718;2024-03-23T09:36:40;141041.41;;;7.60
68440;BMP180;55421;51.600;5.718;2024-03-23T09:39:08;140634.20;;;7.36
68440;BMP180;55421;51.600;5.718;2024-03-23T09:41:35;141331.80;;;7.10
68440;BMP180;55421;51.600;5.718;2024-03-23T09:44:05;142826.41;;;7.04
68440;BMP180;55421;51.600;5.718;2024-03-23T09:46:31;143072.80;;;7.00
68440;BMP180;55421;51.600;5.718;2024-03-23T09:49:01;143802.80;;;6.92
68440;BMP180;55421;51.600;5.718;2024-03-23T09:51:31;144336.20;;;6.90
68440;BMP180;55421;51.600;5.718;2024-03-23T09:53:57;145650.00;;;7.00
68440;BMP180;55421;51.600;5.718;2024-03-23T09:56:23;147065.80;;;7.20
68440;BMP180;55421;51.600;5.718;2024-03-23T09:58:50;147620.00;;;7.40
68440;BMP180;55421;51.600;5.718;2024-03-23T10:01:16;147587.59;;;7.54
68440;BMP180;55421;51.600;5.718;2024-03-23T10:03:44;147816.41;;;7.70
68440;BMP180;55421;51.600;5.718;2024-03-23T10:06:11;148247.41;;;7.90
68440;BMP180;55421;51.600;5.718;2024-03-23T10:08:38;148421.20;;;8.08
68440;BMP180;55421;51.600;5.718;2024-03-23T10:11:15;148802.80;;;8.22
68440;BMP180;55421;51.600;5.718;2024-03-23T10:13:43;147308.59;;;8.40
68440;BMP180;55421;51.600;5.718;2024-03-23T10:16:11;147152.00;;;8.54
68440;BMP180;55421;51.600;5.718;2024-03-23T10:18:40;146322.80;;;8.70
68440;BMP180;55421;51.600;5.718;2024-03-23T10:21:10;146880.59;;;8.90
68440;BMP180;55421;51.600;5.718;2024-03-23T10:23:42;147167.80;;;9.10
68440;BMP180;55421;51.600;5.718;2024-03-23T10:31:24;139616.00;;;9.10
68440;BMP180;55421;51.600;5.718;2024-03-23T10:33:52;139236.80;;;9.00
68440;BMP180;55421;51.600;5.718;2024-03-23T10:36:24;138964.00;;;8.80
68440;BMP180;55421;51.600;5.718;2024-03-23T10:38:54;138207.20;;;8.70
68440;BMP180;55421;51.600;5.718;2024-03-23T10:41:21;137795.41;;;8.50
68440;BMP180;55421;51.600;5.718;2024-03-23T10:43:49;137815.59;;;8.36
68440;BMP180;55421;51.600;5.718;2024-03-23T10:46:15;138240.41;;;8.40
68440;BMP180;55421;51.600;5.718;2024-03-23T10:48:43;140085.80;;;8.60
68440;BMP180;55421;51.600;5.718;2024-03-23T10:51:10;140705.59;;;8.84
68440;BMP180;55421;51.600;5.718;2024-03-23T10:53:37;139139.80;;;8.90
68440;BMP180;55421;51.600;5.718;2024-03-23T10:56:05;137621.00;;;8.80
68440;BMP180;55421;51.600;5.718;2024-03-23T11:01:02;137210.00;;;8.60
68440;BMP180;55421;51.600;5.718;2024-03-23T11:03:37;135928.41;;;8.40
68440;BMP180;55421;51.600;5.718;2024-03-23T11:06:05;133731.59;;;8.20
68440;BMP180;55421;51.600;5.718;2024-03-23T11:08:36;132500.41;;;8.00
68440;BMP180;55421;51.600;5.718;2024-03-23T11:11:20;130061.40;;;7.86
68440;BMP180;55421;51.600;5.718;2024-03-23T11:13:53;129805.00;;;7.80
68440;BMP180;55421;51.600;5.718;2024-03-23T11:16:28;132204.41;;;7.80
68440;BMP180;55421;51.600;5.718;2024-03-23T11:19:37;134145.00;;;8.00
68440;BMP180;55421;51.600;5.718;2024-03-23T11:22:05;137271.00;;;8.28
68440;BMP180;55421;51.600;5.718;2024-03-23T11:24:32;137722.59;;;8.50
68440;BMP180;55421;51.600;5.718;2024-03-23T11:26:59;138158.80;;;8.70
68440;BMP180;55421;51.600;5.718;2024-03-23T11:29:27;137044.41;;;8.82
68440;BMP180;55421;51.600;5.718;2024-03-23T11:31:56;134313.41;;;8.80
68440;BMP180;55421;51.600;5.718;2024-03-23T11:34:22;133509.00;;;8.80
68440;BMP180;55421;51.600;5.718;2024-03-23T11:36:49;130761.00;;;8.52
68440;BMP180;55421;51.600;5.718;2024-03-23T11:39:19;132267.00;;;8.30
68440;BMP180;55421;51.600;5.718;2024-03-23T11:41:50;132833.59;;;8.10
68440;BMP180;55421;51.600;5.718;2024-03-23T11:44:22;130443.00;;;7.90
68440;BMP180;55421;51.600;5.718;2024-03-23T11:46:49;128079.60;;;7.80
68440;BMP180;55421;51.600;5.718;2024-03-23T11:49:29;128284.60;;;7.70
68440;BMP180;55421;51.600;5.718;2024-03-23T11:51:56;130250.60;;;7.70
68440;BMP180;55421;51.600;5.718;2024-03-23T11:54:24;133231.20;;;7.88
68440;BMP180;55421;51.600;5.718;2024-03-23T11:56:59;133519.80;;;8.04
68440;BMP180;55421;51.600;5.718;2024-03-23T11:59:37;134382.41;;;8.26
68440;BMP180;55421;51.600;5.718;2024-03-23T12:02:09;135443.41;;;8.50
68440;BMP180;55421;51.600;5.718;2024-03-23T12:04:40;137827.41;;;8.70
68440;BMP180;55421;51.600;5.718;2024-03-23T12:07:19;137713.00;;;8.82
68440;BMP180;55421;51.600;5.718;2024-03-23T12:10:01;138251.00;;;9.00
68440;BMP180;55421;51.600;5.718;2024-03-23T12:12:28;137552.59;;;9.10
68440;BMP180;55421;51.600;5.718;2024-03-23T12:15:06;135783.00;;;9.20
68440;BMP180;55421;51.600;5.718;2024-03-23T12:17:35;137116.59;;;9.30
68440;BMP180;55421;51.600;5.718;2024-03-23T12:20:02;136013.41;;;9.50
68440;BMP180;55421;51.600;5.718;2024-03-23T12:22:28;130021.60;;;9.70
68440;BMP180;55421;51.600;5.718;2024-03-23T12:24:58;126894.20;;;9.80
68440;BMP180;55421;51.600;5.718;2024-03-23T12:27:24;116073.80;;;9.60
68440;BMP180;55421;51.600;5.718;2024-03-23T12:29:51;106026.20;;;9.40
68440;BMP180;55421;51.600;5.718;2024-03-23T12:32:17;96414.20;;;9.16
68440;BMP180;55421;51.600;5.718;2024-03-23T12:34:44;95687.60;;;8.90
68440;BMP180;55421;51.600;5.718;2024-03-23T12:37:11;97278.20;;;8.80
68440;BMP180;55421;51.600;5.718;2024-03-23T12:39:38;94598.20;;;8.60
68440;BMP180;55421;51.600;5.718;2024-03-23T12:42:05;94526.60;;;8.50
68440;BMP180;55421;51.600;5.718;2024-03-23T12:44:31;92756.20;;;8.50
68440;BMP180;55421;51.600;5.718;2024-03-23T12:46:58;97292.40;;;8.56
68440;BMP180;55421;51.600;5.718;2024-03-23T12:49:24;99920.20;;;8.70
68440;BMP180;55421;51.600;5.718;2024-03-23T12:51:56;100068.80;;;8.70
68440;BMP180;55421;51.600;5.718;2024-03-23T12:54:23;99979.60;;;8.60
68440;BMP180;55421;51.600;5.718;2024-03-23T12:56:50;103213.00;;;8.52
68440;BMP180;55421;51.600;5.718;2024-03-23T12:59:16;102942.40;;;8.40
68440;BMP180;55421;51.600;5.718;2024-03-23T13:01:45;108559.00;;;8.40
68440;BMP180;55421;51.600;5.718;2024-03-23T13:04:11;111722.40;;;8.50
68440;BMP180;55421;51.600;5.718;2024-03-23T13:06:38;114532.80;;;8.60
68440;BMP180;55421;51.600;5.718;2024-03-23T13:09:08;114413.80;;;8.60
68440;BMP180;55421;51.600;5.718;2024-03-23T13:11:35;111292.00;;;8.60
68440;BMP180;55421;51.600;5.718;2024-03-23T13:14:01;109591.20;;;8.40
68440;BMP180;55421;51.600;5.718;2024-03-23T13:16:27;107587.80;;;8.34
68440;BMP180;55421;51.600;5.718;2024-03-23T13:18:54;106337.60;;;8.30
68440;BMP180;55421;51.600;5.718;2024-03-23T13:21:22;106161.20;;;8.30
68440;BMP180;55421;51.600;5.718;2024-03-23T13:23:49;108124.60;;;8.30
68440;BMP180;55421;51.600;5.718;2024-03-23T13:26:18;108643.60;;;8.30
68440;BMP180;55421;51.600;5.718;2024-03-23T13:28:44;108142.00;;;8.36
68440;BMP180;55421;51.600;5.718;2024-03-23T13:31:11;106268.20;;;8.30
68440;BMP180;55421;51.600;5.718;2024-03-23T13:33:37;106024.80;;;8.20
68440;BMP180;55421;51.600;5.718;2024-03-23T13:36:04;106093.20;;;8.12
68440;BMP180;55421;51.600;5.718;2024-03-23T13:38:30;109584.20;;;8.20
68440;BMP180;55421;51.600;5.718;2024-03-23T13:40:59;110185.00;;;8.22
68440;BMP180;55421;51.600;5.718;2024-03-23T13:43:27;108106.40;;;8.20
68440;BMP180;55421;51.600;5.718;2024-03-23T13:45:59;105239.20;;;8.20
68440;BMP180;55421;51.600;5.718;2024-03-23T13:48:28;102195.00;;;8.10
68440;BMP180;55421;51.600;5.718;2024-03-23T13:51:03;96990.80;;;8.06
68440;BMP180;55421;51.600;5.718;2024-03-23T13:53:31;94879.60;;;8.00
68440;BMP180;55421;51.600;5.718;2024-03-23T13:56:00;96231.40;;;8.00
68440;BMP180;55421;51.600;5.718;2024-03-23T13:58:27;98057.00;;;8.00
68440;BMP180;55421;51.600;5.718;2024-03-23T14:00:53;97841.60;;;8.00
68440;BMP180;55421;51.600;5.718;2024-03-23T14:03:23;98095.40;;;8.00
68440;BMP180;55421;51.600;5.718;2024-03-23T14:05:49;101014.00;;;8.06
68440;BMP180;55421;51.600;5.718;2024-03-23T14:08:15;108760.80;;;8.30
68440;BMP180;55421;51.600;5.718;2024-03-23T14:10:42;114903.40;;;8.52
68440;BMP180;55421;51.600;5.718;2024-03-23T14:13:09;117192.80;;;8.70
68440;BMP180;55421;51.600;5.718;2024-03-23T14:15:35;115084.60;;;8.70
68440;BMP180;55421;51.600;5.718;2024-03-23T14:18:05;116551.00;;;8.70
68440;BMP180;55421;51.600;5.718;2024-03-23T14:20:31;115534.60;;;8.60
68440;BMP180;55421;51.600;5.718;2024-03-23T14:22:58;113258.80;;;8.54
68440;BMP180;55421;51.600;5.718;2024-03-23T14:25:24;111134.80;;;8.50
68440;BMP180;55421;51.600;5.718;2024-03-23T14:27:53;109126.80;;;8.40
68440;BMP180;55421;51.600;5.718;2024-03-23T14:30:20;110438.80;;;8.50
68440;BMP180;55421;51.600;5.718;2024-03-23T14:32:46;113351.00;;;8.60
68440;BMP180;55421;51.600;5.718;2024-03-23T14:35:12;114923.40;;;8.74
68440;BMP180;55421;51.600;5.718;2024-03-23T14:37:39;113220.40;;;8.80
68440;BMP180;55421;51.600;5.718;2024-03-23T14:40:09;112911.80;;;8.80
68440;BMP180;55421;51.600;5.718;2024-03-23T14:42:39;112535.40;;;8.90
68440;BMP180;55421;51.600;5.718;2024-03-23T14:45:08;112346.40;;;8.90
68440;BMP180;55421;51.600;5.718;2024-03-23T14:47:34;109490.40;;;8.80
68440;BMP180;55421;51.600;5.718;2024-03-23T14:50:01;109991.80;;;8.70
68440;BMP180;55421;51.600;5.718;2024-03-23T14:52:27;107495.20;;;8.68
68440;BMP180;55421;51.600;5.718;2024-03-23T14:54:53;106089.00;;;8.58
68440;BMP180;55421;51.600;5.718;2024-03-23T14:57:22;105117.20;;;8.40
68440;BMP180;55421;51.600;5.718;2024-03-23T14:59:48;104357.40;;;8.30
68440;BMP180;55421;51.600;5.718;2024-03-23T15:02:15;98927.20;;;8.22
68440;BMP180;55421;51.600;5.718;2024-03-23T15:04:41;95986.00;;;8.20
68440;BMP180;55421;51.600;5.718;2024-03-23T15:07:08;94299.80;;;8.10
68440;BMP180;55421;51.600;5.718;2024-03-23T15:09:34;95366.00;;;8.00
68440;BMP180;55421;51.600;5.718;2024-03-23T15:12:00;95827.40;;;8.00
68440;BMP180;55421;51.600;5.718;2024-03-23T15:14:27;95669.60;;;7.86